createdAt,value
2023-02-01T00:00:25.765Z,3.27
2023-02-01T00:02:53.856Z,3.33
2023-02-01T00:05:21.843Z,4.50
2023-02-01T00:07:50.204Z,3.60
2023-02-01T00:10:18.677Z,3.60
2023-02-01T00:12:46.976Z,3.80
2023-02-01T00:15:15.126Z,3.13
2023-02-01T00:17:44.329Z,4.23
2023-02-01T00:20:13.183Z,3.47
2023-02-01T00:22:41.111Z,3.47
2023-02-01T00:25:09.920Z,3.83
2023-02-01T00:27:37.873Z,3.03
2023-02-01T00:30:07.042Z,2.67
2023-02-01T00:32:35.024Z,2.13
2023-02-01T00:35:04.407Z,2.77
2023-02-01T00:37:32.315Z,2.10
2023-02-01T00:40:00.215Z,2.90
2023-02-01T00:42:28.129Z,3.63
2023-02-01T00:44:56.024Z,2.87
2023-02-01T00:47:23.991Z,2.10
2023-02-01T00:49:51.876Z,2.63
2023-02-01T00:52:21.138Z,2.20
2023-02-01T00:54:49.341Z,3.47
2023-02-01T00:57:17.266Z,2.07
2023-02-01T00:59:45.258Z,3.13
2023-02-01T01:02:15.178Z,2.30
2023-02-01T01:04:43.299Z,3.40
2023-02-01T01:07:11.178Z,2.53
2023-02-01T01:09:40.554Z,2.00
2023-02-01T01:12:08.528Z,2.30
2023-02-01T01:14:36.484Z,2.90
2023-02-01T01:17:04.529Z,3.00
2023-02-01T01:19:32.556Z,2.47
2023-02-01T01:22:00.518Z,1.67
2023-02-01T01:24:28.467Z,2.43
2023-02-01T01:26:57.713Z,3.03
2023-02-01T01:29:25.711Z,4.00
2023-02-01T01:31:53.684Z,2.60
2023-02-01T01:34:21.799Z,1.77
2023-02-01T01:36:49.689Z,1.67
2023-02-01T01:39:18.059Z,1.97
2023-02-01T01:41:46.149Z,1.77
2023-02-01T01:45:11.167Z,2.17
2023-02-01T01:47:45.115Z,2.47
2023-02-01T01:50:20.796Z,1.70
2023-02-01T01:52:52.470Z,2.10
2023-02-01T01:55:23.910Z,1.47
2023-02-01T01:57:57.873Z,2.07
2023-02-01T02:00:26.199Z,1.40
2023-02-01T02:03:01.078Z,1.30
2023-02-01T02:05:30.191Z,1.73
2023-02-01T02:08:01.810Z,1.90
2023-02-01T02:10:44.014Z,1.97
2023-02-01T02:13:12.680Z,1.43
2023-02-01T02:15:47.084Z,1.20
2023-02-01T02:18:24.150Z,1.20
2023-02-01T02:21:08.154Z,1.90
2023-02-01T02:24:01.195Z,1.37
2023-02-01T02:26:38.611Z,1.57
2023-02-01T02:29:58.424Z,1.90
2023-02-01T02:32:59.822Z,3.27
2023-02-01T02:35:35.304Z,1.40
2023-02-01T02:38:11.732Z,1.83
2023-02-01T02:40:49.095Z,1.70
2023-02-01T02:43:41.039Z,2.17
2023-02-01T02:46:30.963Z,1.87
2023-02-01T02:49:06.980Z,2.83
2023-02-01T02:52:03.294Z,2.10
2023-02-01T02:54:52.646Z,2.77
2023-02-01T02:57:44.328Z,2.20
2023-02-01T03:00:34.080Z,3.63
2023-02-01T03:03:20.313Z,2.20
2023-02-01T03:05:51.488Z,2.50
2023-02-01T03:08:23.670Z,1.87
2023-02-01T03:10:59.500Z,2.33
2023-02-01T03:13:37.310Z,2.30
2023-02-01T03:16:14.382Z,2.00
2023-02-01T03:18:50.916Z,3.37
2023-02-01T03:21:24.401Z,2.77
2023-02-01T03:23:56.963Z,2.90
2023-02-01T03:26:27.835Z,2.20
2023-02-01T03:28:59.417Z,2.47
2023-02-01T03:31:29.482Z,2.00
2023-02-01T03:33:58.058Z,2.10
2023-02-01T03:36:31.820Z,2.87
2023-02-01T03:39:06.517Z,3.23
2023-02-01T03:41:39.774Z,2.00
2023-02-01T03:44:15.405Z,2.50
2023-02-01T03:46:47.751Z,1.80
2023-02-01T03:49:22.718Z,3.83
2023-02-01T03:51:53.103Z,3.40
2023-02-01T03:54:22.702Z,1.90
2023-02-01T03:56:52.315Z,2.33
2023-02-01T03:59:20.707Z,2.10
2023-02-01T04:01:49.005Z,2.03
2023-02-01T04:04:20.902Z,2.90
2023-02-01T04:06:52.561Z,2.17
2023-02-01T04:09:22.913Z,1.63
2023-02-01T04:11:50.820Z,2.07
2023-02-01T04:14:18.869Z,2.00
2023-02-01T04:16:47.266Z,1.80
2023-02-01T04:19:15.178Z,1.70
2023-02-01T04:21:43.153Z,2.73
2023-02-01T04:24:11.590Z,2.07
2023-02-01T04:26:41.235Z,1.63
2023-02-01T04:29:11.216Z,2.23
2023-02-01T04:31:39.268Z,1.73
2023-02-01T04:34:07.262Z,1.63
2023-02-01T04:36:35.191Z,1.80
2023-02-01T04:39:03.134Z,1.77
2023-02-01T04:41:31.173Z,1.80
2023-02-01T04:44:00.415Z,2.13
2023-02-01T04:46:28.396Z,2.43
2023-02-01T04:48:56.435Z,1.87
2023-02-01T04:51:24.715Z,2.10
2023-02-01T04:53:52.565Z,2.13
2023-02-01T04:56:20.704Z,2.13
2023-02-01T04:58:48.616Z,2.33
2023-02-01T05:01:17.866Z,4.07
2023-02-01T05:03:45.801Z,1.50
2023-02-01T05:06:13.760Z,1.40
2023-02-01T05:08:41.709Z,1.50
2023-02-01T05:11:29.816Z,1.77
2023-02-01T05:13:56.834Z,2.03
2023-02-01T05:16:26.379Z,1.73
2023-02-01T05:18:54.366Z,1.30
2023-02-01T05:21:22.490Z,2.50
2023-02-01T05:24:07.832Z,1.87
2023-02-01T05:26:35.745Z,2.47
2023-02-01T05:29:03.941Z,1.40
2023-02-01T05:31:33.547Z,1.30
2023-02-01T05:34:01.623Z,2.07
2023-02-01T05:36:29.832Z,2.03
2023-02-01T05:38:57.765Z,1.60
2023-02-01T05:41:26.167Z,2.77
2023-02-01T05:43:54.004Z,1.60
2023-02-01T05:46:21.952Z,2.10
2023-02-01T05:48:51.354Z,2.30
2023-02-01T05:51:19.342Z,1.53
2023-02-01T05:53:47.224Z,3.97
2023-02-01T05:56:15.068Z,3.27
2023-02-01T05:58:42.948Z,2.00
2023-02-01T06:01:10.939Z,1.93
2023-02-01T06:03:39.211Z,2.00
2023-02-01T06:06:08.687Z,1.63
2023-02-01T06:08:36.683Z,3.23
2023-02-01T06:11:06.636Z,3.33
2023-02-01T06:13:35.010Z,1.77
2023-02-01T06:16:03.999Z,1.90
2023-02-01T06:18:32.583Z,2.57
2023-02-01T06:21:01.955Z,2.03
2023-02-01T06:23:32.268Z,1.90
2023-02-01T06:26:03.015Z,2.47
2023-02-01T06:28:31.176Z,2.10
2023-02-01T06:30:59.309Z,2.97
2023-02-01T06:33:27.815Z,2.70
2023-02-01T06:35:59.529Z,1.50
2023-02-01T06:38:28.137Z,1.87
2023-02-01T06:40:58.994Z,3.03
2023-02-01T06:43:28.588Z,2.13
2023-02-01T06:46:01.266Z,2.37
2023-02-01T06:48:29.306Z,2.70
2023-02-01T06:50:57.376Z,3.93
2023-02-01T06:53:25.324Z,2.83
2023-02-01T06:55:54.883Z,2.47
2023-02-01T06:58:24.417Z,2.43
2023-02-01T07:00:54.817Z,2.37
2023-02-01T07:03:22.933Z,4.83
2023-02-01T07:05:50.831Z,3.60
2023-02-01T07:08:18.693Z,3.53
2023-02-01T07:10:46.536Z,3.03
2023-02-01T07:13:14.389Z,4.80
2023-02-01T07:15:44.006Z,3.13
2023-02-01T07:18:11.889Z,6.10
2023-02-01T07:20:39.735Z,3.67
2023-02-01T07:23:07.944Z,3.23
2023-02-01T07:25:37.405Z,2.47
2023-02-01T07:28:05.340Z,4.23
2023-02-01T07:30:33.261Z,4.17
2023-02-01T07:33:03.022Z,3.23
2023-02-01T07:35:31.233Z,4.50
2023-02-01T07:38:00.117Z,5.80
2023-02-01T07:40:29.646Z,3.53
2023-02-01T07:42:58.465Z,4.43
2023-02-01T07:45:26.401Z,4.03
2023-02-01T07:47:55.007Z,4.63
2023-02-01T07:50:24.516Z,5.00
2023-02-01T07:52:54.314Z,4.43
2023-02-01T07:55:22.759Z,6.67
2023-02-01T07:57:50.616Z,4.93
2023-02-01T08:00:48.784Z,5.03
2023-02-01T08:03:17.479Z,5.97
2023-02-01T08:05:46.698Z,6.97
2023-02-01T08:08:14.600Z,5.27
2023-02-01T08:10:42.804Z,4.57
2023-02-01T08:13:11.047Z,6.67
2023-02-01T08:15:38.928Z,7.30
2023-02-01T08:18:07.141Z,4.93
2023-02-01T08:20:37.051Z,6.40
2023-02-01T08:23:10.686Z,7.20
2023-02-01T08:25:39.387Z,3.60
2023-02-01T08:28:08.538Z,5.80
2023-02-01T08:30:38.436Z,7.33
2023-02-01T08:33:07.872Z,8.97
2023-02-01T08:35:43.283Z,4.30
2023-02-01T08:38:13.191Z,5.67
2023-02-01T08:40:42.369Z,9.30
2023-02-01T08:43:10.251Z,9.07
2023-02-01T08:45:38.687Z,5.23
2023-02-01T08:48:07.129Z,5.53
2023-02-01T08:50:35.219Z,7.50
2023-02-01T08:53:03.189Z,9.23
2023-02-01T08:55:32.536Z,4.53
2023-02-01T08:58:00.392Z,7.63
2023-02-01T09:00:28.293Z,8.80
2023-02-01T09:02:57.126Z,6.93
2023-02-01T09:05:29.540Z,7.43
2023-02-01T09:08:03.526Z,7.27
2023-02-01T09:10:35.536Z,7.27
2023-02-01T09:13:04.003Z,5.70
2023-02-01T09:15:31.998Z,7.33
2023-02-01T09:17:59.897Z,7.07
2023-02-01T09:20:28.090Z,7.93
2023-02-01T09:22:57.377Z,9.37
2023-02-01T09:25:25.445Z,8.10
2023-02-01T09:27:54.685Z,7.97
2023-02-01T09:30:23.037Z,5.47
2023-02-01T09:32:51.130Z,5.63
2023-02-01T09:35:19.166Z,8.37
2023-02-01T09:37:47.050Z,4.67
2023-02-01T09:40:17.154Z,12.67
2023-02-01T09:43:19.600Z,8.13
2023-02-01T09:45:55.764Z,10.13
2023-02-01T09:48:30.192Z,8.30
2023-02-01T09:51:01.584Z,8.73
2023-02-01T09:53:34.064Z,6.97
2023-02-01T09:56:07.315Z,6.90
2023-02-01T09:58:40.228Z,9.00
2023-02-01T10:01:17.397Z,7.00
2023-02-01T10:03:45.622Z,7.30
2023-02-01T10:06:32.513Z,13.93
2023-02-01T10:09:17.719Z,7.77
2023-02-01T10:12:01.472Z,7.20
2023-02-01T10:14:49.382Z,7.30
2023-02-01T10:17:27.712Z,10.63
2023-02-01T10:20:06.811Z,8.53
2023-02-01T10:23:10.301Z,7.43
2023-02-01T10:25:37.882Z,10.57
2023-02-01T10:28:06.215Z,8.53
2023-02-01T10:30:42.682Z,7.83
2023-02-01T10:33:17.598Z,6.47
2023-02-01T10:35:47.797Z,7.33
2023-02-01T10:38:24.685Z,8.97
2023-02-01T10:40:54.006Z,9.20
2023-02-01T10:43:22.511Z,7.97
2023-02-01T10:45:51.849Z,8.80
2023-02-01T10:48:19.797Z,7.10
2023-02-01T10:50:56.205Z,5.90
2023-02-01T10:53:27.877Z,5.93
2023-02-01T10:55:56.825Z,6.30
2023-02-01T10:58:29.664Z,10.53
2023-02-01T11:01:03.759Z,6.83
2023-02-01T11:03:41.945Z,7.40
2023-02-01T11:06:20.007Z,12.17
2023-02-01T11:08:50.491Z,11.93
2023-02-01T11:11:20.284Z,6.37
2023-02-01T11:13:55.012Z,11.33
2023-02-01T11:16:32.021Z,5.77
2023-02-01T11:19:00.974Z,7.37
2023-02-01T11:21:29.760Z,5.90
2023-02-01T11:24:02.489Z,5.93
2023-02-01T11:26:32.149Z,10.30
2023-02-01T11:29:03.551Z,7.10
2023-02-01T11:31:34.864Z,9.80
2023-02-01T11:34:09.651Z,8.17
2023-02-01T11:36:39.367Z,11.60
2023-02-01T11:39:25.783Z,6.40
2023-02-01T11:42:02.952Z,5.70
2023-02-01T11:44:34.920Z,5.57
2023-02-01T11:47:25.022Z,3.97
2023-02-01T11:49:55.142Z,6.83
2023-02-01T11:52:45.082Z,2.87
2023-02-01T11:55:28.317Z,7.37
2023-02-01T11:58:08.693Z,5.93
2023-02-01T12:00:51.249Z,12.67
2023-02-01T12:03:54.737Z,7.57
2023-02-01T12:06:31.313Z,7.47
2023-02-01T12:09:15.571Z,7.80
2023-02-01T12:11:55.839Z,10.90
2023-02-01T12:14:36.097Z,7.90
2023-02-01T12:17:33.923Z,6.17
2023-02-01T12:20:24.650Z,7.77
2023-02-01T12:23:02.385Z,5.20
2023-02-01T12:25:41.658Z,6.17
2023-02-01T12:28:45.185Z,6.97
2023-02-01T12:31:40.963Z,7.13
2023-02-01T12:34:35.329Z,8.97
2023-02-01T12:37:13.501Z,8.00
2023-02-01T12:39:46.933Z,6.10
2023-02-01T12:42:20.386Z,8.43
2023-02-01T12:44:52.977Z,6.10
2023-02-01T12:47:26.655Z,8.23
2023-02-01T12:49:59.596Z,6.77
2023-02-01T12:52:36.577Z,9.07
2023-02-01T12:55:11.911Z,6.00
2023-02-01T12:57:42.788Z,7.20
2023-02-01T13:00:23.227Z,8.07
2023-02-01T13:02:57.485Z,4.37
2023-02-01T13:05:30.921Z,9.93
2023-02-01T13:08:04.707Z,7.40
2023-02-01T13:10:36.219Z,5.93
2023-02-01T13:13:12.828Z,11.47
2023-02-01T13:15:44.847Z,9.90
2023-02-01T13:18:17.916Z,4.90
2023-02-01T13:20:52.159Z,7.23
2023-02-01T13:23:27.765Z,7.80
2023-02-01T13:25:56.354Z,7.60
2023-02-01T13:28:29.732Z,4.43
2023-02-01T13:31:24.930Z,8.53
2023-02-01T13:34:05.162Z,8.83
2023-02-01T13:36:50.780Z,7.33
2023-02-01T13:39:56.436Z,10.87
2023-02-01T13:42:28.609Z,6.53
2023-02-01T13:45:00.727Z,10.23
2023-02-01T13:47:31.960Z,11.00
2023-02-01T13:50:03.892Z,6.73
2023-02-01T13:52:39.667Z,8.63
2023-02-01T13:55:31.490Z,6.07
2023-02-01T13:58:16.662Z,7.13
2023-02-01T14:00:45.811Z,5.93
2023-02-01T14:03:22.387Z,7.17
2023-02-01T14:06:19.238Z,8.20
2023-02-01T14:09:09.049Z,8.20
2023-02-01T14:11:44.031Z,10.37
2023-02-01T14:14:42.599Z,6.27
2023-02-01T14:17:38.300Z,8.93
2023-02-01T14:20:46.703Z,11.93
2023-02-01T14:23:24.321Z,6.53
2023-02-01T14:26:12.611Z,10.17
2023-02-01T14:29:04.739Z,7.07
2023-02-01T14:31:49.638Z,5.83
2023-02-01T14:34:24.534Z,4.43
2023-02-01T14:36:57.439Z,5.63
2023-02-01T14:39:38.618Z,6.33
2023-02-01T14:42:19.312Z,6.27
2023-02-01T14:44:59.063Z,7.03
2023-02-01T14:47:31.762Z,4.57
2023-02-01T14:50:13.220Z,9.37
2023-02-01T14:52:44.519Z,5.43
2023-02-01T14:55:17.500Z,10.53
2023-02-01T14:57:48.628Z,7.70
2023-02-01T15:00:25.729Z,5.77
2023-02-01T15:02:56.027Z,8.93
2023-02-01T15:05:31.775Z,8.27
2023-02-01T15:08:05.256Z,10.73
2023-02-01T15:10:35.742Z,8.00
2023-02-01T15:13:03.720Z,8.60
2023-02-01T15:15:37.065Z,12.07
2023-02-01T15:18:05.255Z,4.47
2023-02-01T15:20:34.567Z,5.40
2023-02-01T15:23:05.243Z,6.03
2023-02-01T15:25:37.608Z,9.37
2023-02-01T15:28:06.939Z,4.53
2023-02-01T15:30:37.824Z,6.10
2023-02-01T15:33:08.543Z,7.33
2023-02-01T15:35:44.363Z,7.80
2023-02-01T15:38:43.488Z,7.60
2023-02-01T15:41:15.538Z,5.50
2023-02-01T15:43:45.847Z,7.60
2023-02-01T15:46:19.397Z,8.00
2023-02-01T15:48:50.187Z,12.80
2023-02-01T15:51:21.444Z,10.07
2023-02-01T15:53:52.616Z,4.70
2023-02-01T15:56:25.930Z,5.77
2023-02-01T15:58:57.341Z,7.00
2023-02-01T16:01:27.111Z,5.93
2023-02-01T16:04:12.458Z,4.67
2023-02-01T16:06:48.992Z,7.67
2023-02-01T16:09:18.001Z,9.07
2023-02-01T16:11:58.218Z,4.60
2023-02-01T16:14:26.840Z,9.20
2023-02-01T16:16:57.954Z,7.30
2023-02-01T16:19:29.163Z,7.17
2023-02-01T16:21:57.723Z,6.23
2023-02-01T16:24:27.173Z,5.63
2023-02-01T16:26:55.120Z,10.67
2023-02-01T16:29:23.095Z,8.70
2023-02-01T16:31:51.790Z,8.40
2023-02-01T16:34:21.613Z,6.70
2023-02-01T16:36:52.678Z,4.53
2023-02-01T16:39:21.654Z,5.87
2023-02-01T16:41:49.905Z,8.23
2023-02-01T16:44:17.874Z,6.87
2023-02-01T16:46:48.778Z,5.37
2023-02-01T16:49:23.016Z,4.37
2023-02-01T16:51:53.734Z,9.77
2023-02-01T16:54:22.667Z,7.60
2023-02-01T16:56:51.114Z,5.07
2023-02-01T16:59:19.257Z,6.20
2023-02-01T17:01:47.194Z,7.90
2023-02-01T17:04:17.410Z,5.87
2023-02-01T17:06:49.764Z,4.87
2023-02-01T17:09:17.676Z,8.33
2023-02-01T17:11:45.643Z,6.27
2023-02-01T17:14:18.255Z,8.30
2023-02-01T17:16:48.836Z,5.23
2023-02-01T17:19:19.600Z,4.60
2023-02-01T17:21:54.311Z,8.87
2023-02-01T17:24:24.954Z,6.77
2023-02-01T17:26:53.808Z,5.27
2023-02-01T17:29:21.995Z,4.80
2023-02-01T17:31:52.473Z,5.27
2023-02-01T17:34:20.514Z,3.70
2023-02-01T17:36:51.430Z,8.23
2023-02-01T17:39:37.851Z,4.93
2023-02-01T17:42:06.917Z,9.07
2023-02-01T17:44:34.897Z,7.53
2023-02-01T17:47:02.790Z,7.37
2023-02-01T17:49:30.657Z,8.37
2023-02-01T17:52:00.815Z,7.83
2023-02-01T17:54:28.834Z,7.50
2023-02-01T17:57:00.155Z,5.30
2023-02-01T17:59:28.325Z,4.60
2023-02-01T18:02:00.721Z,4.23
2023-02-01T18:04:28.751Z,8.23
2023-02-01T18:06:57.642Z,8.63
2023-02-01T18:09:27.219Z,5.57
2023-02-01T18:11:55.942Z,5.47
2023-02-01T18:14:23.876Z,7.23
2023-02-01T18:16:51.848Z,7.03
2023-02-01T18:19:19.844Z,7.57
2023-02-01T18:21:47.734Z,6.47
2023-02-01T18:24:16.996Z,9.43
2023-02-01T18:26:46.375Z,11.87
2023-02-01T18:29:14.439Z,8.93
2023-02-01T18:31:48.390Z,6.33
2023-02-01T18:34:21.446Z,5.80
2023-02-01T18:36:49.808Z,10.50
2023-02-01T18:39:18.157Z,5.37
2023-02-01T18:41:52.177Z,6.33
2023-02-01T18:44:20.380Z,7.03
2023-02-01T18:46:48.325Z,7.27
2023-02-01T18:49:18.683Z,9.50
2023-02-01T18:51:47.033Z,5.47
2023-02-01T18:54:15.203Z,5.73
2023-02-01T18:56:43.848Z,5.77
2023-02-01T18:59:13.195Z,5.83
2023-02-01T19:01:41.429Z,9.10
2023-02-01T19:04:20.723Z,9.07
2023-02-01T19:06:53.749Z,5.17
2023-02-01T19:09:22.271Z,7.07
2023-02-01T19:11:50.490Z,7.13
2023-02-01T19:14:19.859Z,9.93
2023-02-01T19:16:47.991Z,5.90
2023-02-01T19:19:16.015Z,10.33
2023-02-01T19:21:44.105Z,7.27
2023-02-01T19:24:12.106Z,8.60
2023-02-01T19:26:42.331Z,11.67
2023-02-01T19:29:10.283Z,10.57
2023-02-01T19:31:39.655Z,6.23
2023-02-01T19:34:07.643Z,7.93
2023-02-01T19:36:41.558Z,7.33
2023-02-01T19:39:11.543Z,6.90
2023-02-01T19:41:39.444Z,6.87
2023-02-01T19:44:07.472Z,7.80
2023-02-01T19:46:36.250Z,8.40
2023-02-01T19:49:07.833Z,8.03
2023-02-01T19:51:35.774Z,6.43
2023-02-01T19:54:03.625Z,6.13
2023-02-01T19:56:31.519Z,7.57
2023-02-01T19:58:59.926Z,6.83
2023-02-01T20:01:27.258Z,9.33
2023-02-01T20:03:58.512Z,6.40
2023-02-01T20:06:27.994Z,6.47
2023-02-01T20:08:56.096Z,8.33
2023-02-01T20:11:25.282Z,8.07
2023-02-01T20:13:53.346Z,4.87
2023-02-01T20:16:22.263Z,4.60
2023-02-01T20:18:50.654Z,6.53
2023-02-01T20:21:19.258Z,6.07
2023-02-01T20:23:49.553Z,8.50
2023-02-01T20:26:21.554Z,9.23
2023-02-01T20:28:49.523Z,9.93
2023-02-01T20:31:17.523Z,8.87
2023-02-01T20:33:45.424Z,7.17
2023-02-01T20:36:13.504Z,5.63
2023-02-01T20:38:41.533Z,7.53
2023-02-01T20:41:11.247Z,7.80
2023-02-01T20:43:39.554Z,9.00
2023-02-01T20:46:09.600Z,8.87
2023-02-01T20:48:37.743Z,11.63
2023-02-01T20:51:05.965Z,10.23
2023-02-01T20:53:34.058Z,11.13
2023-02-01T20:56:02.048Z,6.27
2023-02-01T20:58:31.857Z,9.33
2023-02-01T21:00:59.835Z,11.93
2023-02-01T21:03:28.328Z,8.80
2023-02-01T21:05:58.482Z,16.83
2023-02-01T21:08:27.863Z,7.77
2023-02-01T21:11:00.867Z,11.53
2023-02-01T21:13:32.227Z,18.93
2023-02-01T21:16:00.368Z,13.90
2023-02-01T21:18:28.384Z,7.07
2023-02-01T21:20:56.636Z,6.43
2023-02-01T21:23:24.986Z,6.50
2023-02-01T21:25:52.928Z,10.07
2023-02-01T21:28:20.923Z,6.90
2023-02-01T21:30:50.399Z,8.57
2023-02-01T21:33:18.399Z,7.60
2023-02-01T21:35:46.306Z,6.93
2023-02-01T21:38:14.318Z,6.93
2023-02-01T21:40:42.225Z,8.87
2023-02-01T21:43:10.154Z,15.70
2023-02-01T21:45:43.545Z,11.00
2023-02-01T21:48:12.969Z,11.70
2023-02-01T21:50:41.467Z,9.90
2023-02-01T21:53:09.406Z,8.23
2023-02-01T21:55:37.382Z,6.40
2023-02-01T21:58:12.537Z,8.47
2023-02-01T22:00:40.686Z,8.30
2023-02-01T22:03:08.657Z,7.00
2023-02-01T22:05:37.989Z,8.00
2023-02-01T22:08:06.174Z,7.97
2023-02-01T22:10:34.144Z,6.57
2023-02-01T22:13:02.045Z,7.53
2023-02-01T22:15:30.373Z,8.00
2023-02-01T22:17:58.300Z,7.70
2023-02-01T22:20:28.897Z,7.80
2023-02-01T22:22:58.297Z,6.10
2023-02-01T22:25:28.467Z,8.53
2023-02-01T22:28:31.599Z,9.47
2023-02-01T22:30:44.918Z,6.77
2023-02-01T22:33:13.212Z,10.07
2023-02-01T22:35:41.403Z,7.27
2023-02-01T22:38:10.584Z,5.57
2023-02-01T22:40:38.463Z,5.97
2023-02-01T22:43:06.377Z,9.17
2023-02-01T22:45:34.281Z,6.10
2023-02-01T22:48:02.182Z,8.30
2023-02-01T22:50:30.160Z,5.60
2023-02-01T22:52:58.079Z,7.77
2023-02-01T22:55:27.272Z,6.70
2023-02-01T22:57:55.158Z,12.53
2023-02-01T23:00:24.858Z,6.47
2023-02-01T23:02:53.046Z,7.30
2023-02-01T23:05:21.801Z,7.67
2023-02-01T23:07:50.960Z,7.80
2023-02-01T23:10:20.325Z,5.47
2023-02-01T23:12:49.936Z,10.10
2023-02-01T23:15:18.326Z,5.40
2023-02-01T23:17:46.794Z,7.23
2023-02-01T23:20:17.859Z,8.57
2023-02-01T23:22:47.417Z,4.90
2023-02-01T23:25:19.104Z,7.53
2023-02-01T23:27:48.772Z,5.80
2023-02-01T23:30:18.210Z,5.10
2023-02-01T23:32:46.056Z,9.00
2023-02-01T23:35:13.924Z,6.37
2023-02-01T23:37:41.888Z,7.47
2023-02-01T23:40:11.041Z,3.23
2023-02-01T23:42:39.212Z,5.70
2023-02-01T23:45:08.141Z,6.57
2023-02-01T23:47:37.916Z,8.77
2023-02-01T23:50:06.633Z,6.00
2023-02-01T23:52:34.515Z,4.10
2023-02-01T23:55:02.444Z,5.90
2023-02-01T23:57:30.404Z,5.03
